Time;durP1;ratioP1;P1;durP2;ratioP2;P2;SDS_P1;SDS_P2;PMS_P1;PMS_P2;Temp;Humidity;BMP_temperature;BMP_pressure;BME280_temperature;BME280_humidity;BME280_pressure;Samples;Min_cycle;Max_cycle;Signal;HPM_P1;HPM_P2
2023/04/23 00:01:27;;;;;;;61.15;36.10;;;;;;;7.54;100.00;100738.22;4912543;29;20028;-76
2023/04/23 00:03:57;;;;;;;55.15;33.90;;;;;;;7.55;100.00;100733.81;4915670;29;20028;-76
2023/04/23 00:06:25;;;;;;;58.42;33.83;;;;;;;7.56;100.00;100739.94;4915498;29;20035;-76
2023/04/23 00:08:54;;;;;;;64.43;38.08;;;;;;;7.53;100.00;100727.69;4883132;29;20031;-76
2023/04/23 00:11:20;;;;;;;53.63;34.20;;;;;;;7.53;100.00;100727.69;4911875;29;20117;-76
2023/04/23 00:13:48;;;;;;;59.80;36.00;;;;;;;7.51;100.00;100722.41;4912580;29;20028;-76
2023/04/23 00:16:13;;;;;;;63.53;34.70;;;;;;;7.52;100.00;100723.31;4915494;29;20115;-76
2023/04/23 00:18:39;;;;;;;59.40;34.83;;;;;;;7.50;100.00;100717.19;4915602;29;20032;-75
2023/04/23 00:21:05;;;;;;;51.97;35.88;;;;;;;7.47;100.00;100712.81;4915757;29;20055;-75
2023/04/23 00:23:30;;;;;;;50.10;31.00;;;;;;;7.46;100.00;100718.09;4898635;29;20032;-76
2023/04/23 00:25:56;;;;;;;56.13;34.63;;;;;;;7.44;100.00;100709.34;4897770;29;20063;-76
2023/04/23 00:28:21;;;;;;;60.53;34.67;;;;;;;7.45;100.00;100711.09;4915732;29;20080;-76
2023/04/23 00:30:47;;;;;;;60.13;35.15;;;;;;;7.43;100.00;100708.47;4914064;29;20091;-76
2023/04/23 00:33:12;;;;;;;58.13;34.70;;;;;;;7.41;100.00;100707.59;4883015;29;20024;-76
2023/04/23 00:35:38;;;;;;;59.65;35.58;;;;;;;7.37;100.00;100700.66;4915310;29;20392;-76
2023/04/23 00:38:04;;;;;;;59.58;37.20;;;;;;;7.39;100.00;100704.09;4915354;29;20379;-76
2023/04/23 00:40:30;;;;;;;66.60;38.17;;;;;;;7.40;100.00;100710.28;4915316;29;20127;-76
2023/04/23 00:42:57;;;;;;;61.10;36.10;;;;;;;7.37;100.00;100700.66;4898144;29;20580;-76
2023/04/23 00:45:22;;;;;;;66.50;38.10;;;;;;;7.34;100.00;100700.66;4905171;29;20135;-76
2023/04/23 00:47:48;;;;;;;64.45;37.58;;;;;;;7.33;100.00;100696.28;4894839;29;20119;-76
2023/04/23 00:50:14;;;;;;;61.38;36.53;;;;;;;7.27;100.00;100691.97;4901347;29;20033;-76
2023/04/23 00:52:40;;;;;;;66.25;39.38;;;;;;;7.27;100.00;100683.16;4908937;29;20032;-76
2023/04/23 00:55:07;;;;;;;63.97;35.85;;;;;;;7.27;100.00;100694.59;4897886;29;20092;-76
2023/04/23 00:57:35;;;;;;;70.82;36.95;;;;;;;7.28;100.00;100692.84;4909132;29;20032;-76
2023/04/23 01:00:02;;;;;;;57.05;36.47;;;;;;;7.25;100.00;100685.84;4892473;29;20087;-76
2023/04/23 01:02:29;;;;;;;58.95;35.28;;;;;;;7.23;100.00;100684.13;4915506;29;20032;-76
2023/04/23 01:04:55;;;;;;;57.72;34.78;;;;;;;7.20;100.00;100674.47;4885237;29;20064;-75
2023/04/23 01:07:21;;;;;;;57.95;35.63;;;;;;;7.22;100.00;100683.25;4892916;29;20116;-76
2023/04/23 01:09:49;;;;;;;54.17;33.00;;;;;;;7.25;100.00;100677.06;4907490;29;20047;-76
2023/04/23 01:12:16;;;;;;;58.03;34.05;;;;;;;7.25;100.00;100677.06;4907999;29;20035;-76
2023/04/23 01:14:42;;;;;;;53.95;33.85;;;;;;;7.24;100.00;100672.69;4913596;29;20036;-76
2023/04/23 01:17:08;;;;;;;55.10;33.10;;;;;;;7.23;100.00;100663.91;4901783;29;20112;-76
2023/04/23 01:19:35;;;;;;;57.72;33.17;;;;;;;7.23;100.00;100660.41;4913824;29;20203;-76
2023/04/23 01:22:01;;;;;;;56.20;33.75;;;;;;;7.25;100.00;100663.91;4882749;29;20103;-76
2023/04/23 01:24:30;;;;;;;52.72;33.22;;;;;;;7.25;100.00;100658.63;4915154;29;20035;-76
2023/04/23 01:26:57;;;;;;;48.85;30.75;;;;;;;7.21;100.00;100651.66;4915111;29;20051;-76
2023/04/23 01:29:23;;;;;;;48.78;30.58;;;;;;;7.24;100.00;100657.75;4915017;29;20507;-76
2023/04/23 01:31:52;;;;;;;48.83;30.60;;;;;;;7.25;100.00;100656.88;4903941;29;20106;-76
2023/04/23 01:34:19;;;;;;;51.13;30.98;;;;;;;7.24;100.00;100654.25;4899597;29;20036;-76
2023/04/23 01:36:46;;;;;;;46.47;28.45;;;;;;;7.23;100.00;100655.13;4915936;29;20387;-76
2023/04/23 01:39:12;;;;;;;46.92;30.60;;;;;;;7.20;100.00;100649.91;4909420;29;20423;-76
2023/04/23 01:41:38;;;;;;;47.10;29.63;;;;;;;7.19;100.00;100656.91;4910783;29;20048;-76
2023/04/23 01:44:04;;;;;;;52.17;30.70;;;;;;;7.16;100.00;100645.56;4912681;29;20036;-76
2023/04/23 01:46:30;;;;;;;43.60;28.45;;;;;;;7.18;100.00;100652.56;4918443;29;20341;-76
2023/04/23 01:48:55;;;;;;;43.50;27.95;;;;;;;7.17;100.00;100650.81;4927214;29;20043;-76
2023/04/23 01:51:22;;;;;;;44.22;28.17;;;;;;;7.22;100.00;100654.28;4915152;29;20024;-76
2023/04/23 01:53:48;;;;;;;42.67;28.25;;;;;;;7.21;100.00;100651.66;4905207;29;20444;-76
2023/04/23 01:56:15;;;;;;;42.75;26.88;;;;;;;7.21;100.00;100657.78;4902728;29;20029;-76
2023/04/23 01:58:41;;;;;;;41.97;26.73;;;;;;;7.21;100.00;100654.28;4932059;28;20059;-76
2023/04/23 02:01:06;;;;;;;39.80;25.33;;;;;;;7.21;100.00;100646.38;4927356;29;20447;-76
2023/04/23 02:03:32;;;;;;;41.72;25.70;;;;;;;7.20;100.00;100642.00;4903453;29;20037;-76
2023/04/23 02:05:59;;;;;;;39.88;27.23;;;;;;;7.22;100.00;100643.75;4916551;29;20393;-76
2023/04/23 02:08:26;;;;;;;41.10;26.25;;;;;;;7.23;100.00;100644.59;4902772;29;20050;-77
2023/04/23 02:10:52;;;;;;;39.80;26.15;;;;;;;7.22;100.00;100640.22;4900627;29;20107;-77
2023/04/23 02:13:17;;;;;;;40.80;26.90;;;;;;;7.24;100.00;100638.44;4882177;29;20139;-76
2023/04/23 02:15:43;;;;;;;38.92;26.67;;;;;;;7.18;100.00;100634.13;4905546;29;20041;-76
2023/04/23 02:18:09;;;;;;;38.13;25.75;;;;;;;7.21;100.00;100643.75;4898974;29;20036;-76
2023/04/23 02:20:39;;;;;;;39.80;26.10;;;;;;;7.19;100.00;100637.63;4898732;29;20055;-76
2023/04/23 02:23:06;;;;;;;36.90;24.83;;;;;;;7.17;100.00;100632.38;4906619;29;20112;-76
2023/04/23 02:25:32;;;;;;;35.10;23.55;;;;;;;7.15;100.00;100628.88;4904152;29;20051;-76
2023/04/23 02:27:58;;;;;;;36.78;25.02;;;;;;;7.16;100.00;100621.84;4897434;29;20472;-76
2023/04/23 02:30:24;;;;;;;34.30;23.20;;;;;;;7.14;100.00;100634.16;4893419;29;20032;-76
2023/04/23 02:32:50;;;;;;;38.45;25.55;;;;;;;7.17;100.00;100635.03;4916026;29;20471;-76
2023/04/23 02:35:16;;;;;;;33.97;23.80;;;;;;;7.18;100.00;100639.38;4907747;29;20040;-76
2023/04/23 02:37:41;;;;;;;36.83;24.55;;;;;;;7.16;100.00;100629.75;4897236;29;20044;-76
2023/04/23 02:40:08;;;;;;;35.20;23.55;;;;;;;7.16;100.00;100643.78;4896463;29;20575;-76
2023/04/23 02:42:34;;;;;;;34.35;23.77;;;;;;;7.14;100.00;100636.78;4898204;29;20083;-76
2023/04/23 02:44:59;;;;;;;32.65;22.52;;;;;;;7.15;100.00;100639.44;4896634;29;20044;-76
2023/04/23 02:47:25;;;;;;;32.25;23.05;;;;;;;7.14;100.00;100640.28;4890916;29;20126;-76
2023/04/23 02:49:51;;;;;;;34.88;21.75;;;;;;;7.08;100.00;100633.34;4903774;29;20543;-76
2023/04/23 02:52:16;;;;;;;29.08;21.95;;;;;;;7.11;100.00;100633.31;4898274;29;20032;-76
2023/04/23 02:54:42;;;;;;;31.77;22.05;;;;;;;7.13;100.00;100632.44;4910188;29;20036;-76
2023/04/23 02:57:08;;;;;;;28.42;21.35;;;;;;;7.13;100.00;100640.34;4881424;29;20456;-76
2023/04/23 02:59:34;;;;;;;31.80;22.33;;;;;;;7.12;100.00;100631.53;4902724;29;20033;-76
2023/04/23 03:02:00;;;;;;;31.40;21.95;;;;;;;7.13;100.00;100632.44;4894461;29;20037;-76
2023/04/23 03:04:26;;;;;;;30.83;21.90;;;;;;;7.14;100.00;100639.44;4881533;29;20028;-76
2023/04/23 03:06:52;;;;;;;30.42;22.77;;;;;;;7.15;100.00;100639.44;4910029;29;20523;-76
2023/04/23 03:09:17;;;;;;;29.38;22.38;;;;;;;7.15;100.00;100631.53;4906283;29;20048;-76
2023/04/23 03:11:43;;;;;;;31.05;22.60;;;;;;;7.17;100.00;100632.38;4900313;29;20044;-76
2023/04/23 03:14:10;;;;;;;31.70;22.48;;;;;;;7.18;100.00;100633.25;4896594;29;20127;-77
2023/04/23 03:16:36;;;;;;;31.27;21.52;;;;;;;7.16;100.00;100622.72;4912211;29;20140;-76
2023/04/23 03:19:02;;;;;;;34.55;22.75;;;;;;;7.16;100.00;100620.09;4881040;29;20112;-76
2023/04/23 03:21:27;;;;;;;29.17;20.63;;;;;;;7.19;100.00;100613.91;4875942;29;20444;-76
2023/04/23 03:23:53;;;;;;;27.45;21.27;;;;;;;7.20;100.00;100607.78;4900523;29;20084;-76
2023/04/23 03:26:19;;;;;;;34.70;21.73;;;;;;;7.23;100.00;100613.88;4920688;29;20403;-77
2023/04/23 03:28:45;;;;;;;27.83;21.25;;;;;;;7.23;100.00;100613.88;4914161;29;20032;-77
2023/04/23 03:31:10;;;;;;;27.10;19.73;;;;;;;7.30;100.00;100615.53;4887470;29;20127;-76
2023/04/23 03:33:36;;;;;;;28.80;20.27;;;;;;;7.30;100.00;100610.28;4902813;29;20044;-76
2023/04/23 03:36:02;;;;;;;26.90;19.77;;;;;;;7.32;100.00;100612.91;4925281;29;20390;-76
2023/04/23 03:38:30;;;;;;;28.10;19.92;;;;;;;7.32;100.00;100613.75;4895917;29;20143;-76
2023/04/23 03:40:57;;;;;;;25.40;19.25;;;;;;;7.33;100.00;100612.00;4892957;29;20033;-76
2023/04/23 03:43:23;;;;;;;24.98;19.33;;;;;;;7.36;100.00;100614.59;4877425;29;20028;-76
2023/04/23 03:46:01;;;;;;;25.08;19.48;;;;;;;7.38;100.00;100604.91;4907973;29;20059;-76
2023/04/23 03:48:28;;;;;;;31.60;20.88;;;;;;;7.39;100.00;100605.78;4904709;29;20040;-76
2023/04/23 03:50:54;;;;;;;28.33;19.80;;;;;;;7.41;100.00;100611.91;4899996;29;20033;-76
2023/04/23 03:53:31;;;;;;;28.95;19.70;;;;;;;7.43;100.00;100610.13;4895253;29;20571;-76
2023/04/23 03:56:15;;;;;;;30.80;20.55;;;;;;;7.45;100.00;100601.31;4896876;29;20085;-76
2023/04/23 03:58:49;;;;;;;32.90;20.60;;;;;;;7.49;100.00;100613.56;4881289;29;20385;-76
2023/04/23 04:01:15;;;;;;;26.17;19.60;;;;;;;7.51;100.00;100613.53;4910648;29;20045;-76
2023/04/23 04:03:41;;;;;;;26.83;20.50;;;;;;;7.49;100.00;100602.13;4896845;29;20052;-76
2023/04/23 04:06:06;;;;;;;25.85;19.05;;;;;;;7.54;100.00;100606.47;4912020;29;20037;-76
2023/04/23 04:08:32;;;;;;;25.33;19.27;;;;;;;7.58;100.00;100609.06;4908578;29;20040;-77
2023/04/23 04:10:59;;;;;;;25.13;18.00;;;;;;;7.63;100.00;100615.13;4907024;29;20036;-77
2023/04/23 04:13:24;;;;;;;26.10;19.20;;;;;;;7.65;100.00;100623.91;4879634;29;20037;-77
2023/04/23 04:15:50;;;;;;;23.17;17.95;;;;;;;7.65;100.00;100622.13;4913861;29;20036;-77
2023/04/23 04:18:15;;;;;;;27.15;19.25;;;;;;;7.68;100.00;100618.56;4903611;29;20519;-77
2023/04/23 04:20:43;;;;;;;24.50;18.63;;;;;;;7.73;100.00;100612.34;4908629;29;20484;-77
2023/04/23 04:23:08;;;;;;;27.17;19.63;;;;;;;7.75;100.00;100602.66;4896509;29;20033;-77
2023/04/23 04:25:38;;;;;;;22.88;17.15;;;;;;;7.74;100.00;100611.47;4909601;29;20051;-77
2023/04/23 04:28:04;;;;;;;23.27;16.85;;;;;;;7.78;100.00;100612.28;4895492;29;20033;-77
2023/04/23 04:30:30;;;;;;;23.83;16.85;;;;;;;7.81;100.00;100616.63;4896151;29;20056;-77
2023/04/23 04:32:55;;;;;;;21.83;17.05;;;;;;;7.83;100.00;100615.72;4896524;29;20025;-77
2023/04/23 04:35:21;;;;;;;24.38;16.88;;;;;;;7.86;100.00;100613.06;4896229;29;20528;-77
2023/04/23 04:37:46;;;;;;;20.25;16.48;;;;;;;7.97;100.00;100620.81;4879260;29;20028;-77
2023/04/23 04:40:14;;;;;;;23.15;17.40;;;;;;;7.98;100.00;100614.63;4896006;29;20131;-77
2023/04/23 04:42:39;;;;;;;21.25;17.13;;;;;;;7.97;100.00;100611.13;4893264;29;20056;-77
2023/04/23 04:45:07;;;;;;;24.27;17.52;;;;;;;8.02;100.00;100621.59;4896117;29;20044;-77
2023/04/23 04:47:33;;;;;;;22.20;16.35;;;;;;;8.05;100.00;100613.63;4895809;29;20029;-77
2023/04/23 04:49:59;;;;;;;19.80;16.20;;;;;;;8.08;100.00;100608.31;4903678;29;20052;-77
2023/04/23 04:52:24;;;;;;;21.35;17.13;;;;;;;8.07;100.00;100603.09;4914981;29;20040;-77
2023/04/23 04:54:50;;;;;;;19.70;14.65;;;;;;;8.05;100.00;100605.72;4878693;29;20060;-77
2023/04/23 04:57:16;;;;;;;19.70;15.50;;;;;;;8.07;100.00;100611.00;4879563;29;20543;-77
2023/04/23 04:59:41;;;;;;;21.92;15.55;;;;;;;8.05;100.00;100605.72;4891154;29;20032;-77
2023/04/23 05:02:07;;;;;;;19.63;16.23;;;;;;;8.04;100.00;100600.50;4905996;29;20482;-76
2023/04/23 05:04:32;;;;;;;20.55;15.48;;;;;;;8.00;100.00;100611.97;4879378;29;20039;-77
2023/04/23 05:06:58;;;;;;;22.10;14.52;;;;;;;7.98;100.00;100612.84;4896034;29;20033;-76
2023/04/23 05:09:24;;;;;;;18.63;15.32;;;;;;;8.00;100.00;100615.47;4879527;29;20081;-76
2023/04/23 05:11:50;;;;;;;20.42;15.30;;;;;;;8.02;100.00;100616.34;4885557;29;20032;-76
2023/04/23 05:14:16;;;;;;;20.17;16.90;;;;;;;8.06;100.00;100612.75;4890876;29;20055;-77
2023/04/23 05:16:41;;;;;;;26.40;17.05;;;;;;;8.08;100.00;100616.22;4899767;29;20033;-76
2023/04/23 05:19:07;;;;;;;22.23;15.48;;;;;;;8.09;100.00;100610.06;4905066;29;20043;-76
2023/04/23 05:21:33;;;;;;;19.92;14.52;;;;;;;8.07;100.00;100611.00;4890664;29;20040;-76
2023/04/23 05:23:58;;;;;;;19.10;15.05;;;;;;;8.07;100.00;100608.34;4899434;29;20045;-76
2023/04/23 05:26:23;;;;;;;17.52;14.25;;;;;;;8.07;100.00;100619.78;4899750;29;20560;-76
2023/04/23 05:28:49;;;;;;;17.98;14.15;;;;;;;8.11;100.00;100618.84;4912695;29;20077;-77
2023/04/23 05:31:15;;;;;;;18.63;15.20;;;;;;;8.19;100.00;100626.63;4882541;29;20076;-77
2023/04/23 05:33:42;;;;;;;21.77;16.05;;;;;;;8.22;100.00;100615.16;4899665;29;20056;-77
2023/04/23 05:36:07;;;;;;;21.77;15.70;;;;;;;8.29;100.00;100617.66;4899335;29;20114;-77
2023/04/23 05:38:33;;;;;;;22.77;16.35;;;;;;;8.29;100.00;100612.41;4894602;29;20367;-77
2023/04/23 05:40:59;;;;;;;18.98;16.00;;;;;;;8.28;100.00;100615.03;4899849;29;20441;-76
2023/04/23 05:43:24;;;;;;;22.30;16.38;;;;;;;8.31;100.00;100613.25;4908533;29;20099;-77
2023/04/23 05:45:50;;;;;;;21.15;16.10;;;;;;;8.34;100.00;100613.19;4903339;29;20029;-77
2023/04/23 05:48:15;;;;;;;22.75;17.20;;;;;;;8.39;100.00;100615.75;4910624;29;20040;-77
2023/04/23 05:50:41;;;;;;;25.45;17.05;;;;;;;8.43;100.00;100614.81;4899037;29;20080;-76
2023/04/23 05:53:06;;;;;;;23.00;17.02;;;;;;;8.47;100.00;100615.66;4911736;29;20433;-77
2023/04/23 05:55:32;;;;;;;22.70;16.33;;;;;;;8.50;100.00;100612.97;4898923;29;20079;-77
2023/04/23 05:57:57;;;;;;;20.23;14.70;;;;;;;8.54;100.00;100610.25;4911014;29;20127;-77
2023/04/23 06:00:23;;;;;;;23.00;15.90;;;;;;;8.63;100.00;100609.22;4899343;29;20048;-78
2023/04/23 06:02:48;;;;;;;20.75;16.85;;;;;;;8.70;100.00;100610.84;4882223;29;20048;-77
2023/04/23 06:05:14;;;;;;;22.90;17.27;;;;;;;8.75;100.00;100610.75;4899142;29;20027;-77
2023/04/23 06:07:41;;;;;;;18.80;15.10;;;;;;;8.79;100.00;100615.09;4897675;29;20109;-77
2023/04/23 06:10:07;;;;;;;20.75;15.70;;;;;;;8.85;100.00;100608.81;4904141;29;20032;-77
2023/04/23 06:12:32;;;;;;;20.42;14.38;;;;;;;9.00;100.00;100613.81;4903993;29;20073;-77
2023/04/23 06:14:58;;;;;;;20.52;14.82;;;;;;;9.07;100.00;100604.88;4885501;29;20420;-77
2023/04/23 06:17:23;;;;;;;19.48;15.43;;;;;;;9.12;100.00;100599.50;4898396;29;20104;-77
2023/04/23 06:19:50;;;;;;;19.13;13.48;;;;;;;9.24;100.00;100605.41;4909814;29;20095;-78
2023/04/23 06:22:15;;;;;;;20.50;13.95;;;;;;;9.34;100.00;100605.22;4901406;29;20052;-78
2023/04/23 06:24:40;;;;;;;19.55;13.63;;;;;;;9.40;100.00;100597.19;4912274;29;20050;-78
2023/04/23 06:27:06;;;;;;;16.40;12.90;;;;;;;9.48;100.00;100592.59;4897699;29;20055;-78
2023/04/23 06:29:35;;;;;;;17.13;12.18;;;;;;;9.57;100.00;100589.78;4920885;29;20028;-78
2023/04/23 06:32:03;;;;;;;21.98;12.70;;;;;;;9.65;100.00;100577.25;4905840;29;20105;-78
2023/04/23 06:34:29;;;;;;;15.68;12.50;;;;;;;9.76;100.00;100577.00;4916285;29;20451;-78
2023/04/23 06:36:55;;;;;;;18.27;12.02;;;;;;;9.84;100.00;100572.41;4904981;29;20131;-78
2023/04/23 06:39:20;;;;;;;17.40;11.60;;;;;;;9.94;100.00;100575.72;4898803;29;20076;-78
2023/04/23 06:41:46;;;;;;;16.73;11.52;;;;;;;10.09;100.00;100577.13;4908224;29;20051;-78
2023/04/23 06:44:22;;;;;;;13.70;10.77;;;;;;;10.11;100.00;100570.00;4897276;29;20033;-78
2023/04/23 06:46:51;;;;;;;17.23;11.45;;;;;;;10.19;100.00;100572.47;4882235;29;20580;-78
2023/04/23 06:49:17;;;;;;;15.57;10.40;;;;;;;10.29;100.00;100563.44;4894858;29;20122;-78
2023/04/23 06:51:43;;;;;;;17.33;10.98;;;;;;;10.39;100.00;100566.72;4873681;29;20046;-78
2023/04/23 06:54:08;;;;;;;15.43;10.45;;;;;;;10.45;100.00;100566.56;4902333;29;20020;-78
2023/04/23 06:56:34;;;;;;;17.45;11.00;;;;;;;10.51;100.00;100556.69;4891468;29;20041;-78
2023/04/23 06:58:59;;;;;;;13.32;9.48;;;;;;;10.68;100.00;100564.19;4889597;29;20428;-78
2023/04/23 07:01:25;;;;;;;17.52;10.85;;;;;;;10.77;100.00;100566.56;4885239;29;20131;-78
2023/04/23 07:03:53;;;;;;;13.43;9.55;;;;;;;10.87;100.00;100572.50;4890832;29;20041;-78
2023/04/23 07:06:19;;;;;;;14.75;10.00;;;;;;;10.94;100.00;100574.06;4881362;29;20496;-78
2023/04/23 07:08:44;;;;;;;20.30;9.63;;;;;;;11.00;100.00;100565.06;4881760;29;20107;-78
2023/04/23 07:11:10;;;;;;;17.60;9.98;;;;;;;11.08;100.00;100567.53;4898382;29;20047;-76
2023/04/23 07:13:36;;;;;;;12.75;9.25;;;;;;;11.19;100.00;100565.41;4897689;29;20472;-76
2023/04/23 07:16:02;;;;;;;14.50;8.35;;;;;;;11.31;100.00;100565.06;4880858;29;20041;-75
2023/04/23 07:18:27;;;;;;;12.88;8.63;;;;;;;11.35;100.00;100553.47;4897623;29;20365;-76
2023/04/23 07:20:53;;;;;;;17.70;7.70;;;;;;;11.41;100.00;100555.06;4903769;29;20044;-75
2023/04/23 07:23:18;;;;;;;17.73;9.27;;;;;;;11.47;99.01;100557.50;4899916;29;20032;-76
2023/04/23 07:25:44;;;;;;;15.00;8.55;;;;;;;11.52;99.13;100555.63;4899152;29;20041;-76
2023/04/23 07:28:09;;;;;;;11.63;8.40;;;;;;;11.59;99.60;100551.84;4897749;29;20082;-75
2023/04/23 07:30:35;;;;;;;13.57;8.30;;;;;;;11.68;99.53;100561.31;4909438;29;20416;-76
2023/04/23 07:33:01;;;;;;;16.08;7.85;;;;;;;11.78;99.15;100559.25;4897659;29;20058;-76
2023/04/23 07:35:26;;;;;;;15.15;8.10;;;;;;;11.87;98.61;100550.16;4897966;29;20496;-75
2023/04/23 07:37:54;;;;;;;10.90;7.22;;;;;;;11.98;98.36;100551.53;4910809;29;20109;-76
2023/04/23 07:40:24;;;;;;;13.70;7.20;;;;;;;12.08;96.91;100551.25;4907012;29;20048;-76
2023/04/23 07:42:50;;;;;;;11.23;6.57;;;;;;;12.15;95.34;100552.78;4898166;29;20481;-76
2023/04/23 07:45:16;;;;;;;14.35;6.85;;;;;;;12.21;95.13;100552.56;4897290;29;20045;-76
2023/04/23 07:47:42;;;;;;;16.17;7.50;;;;;;;12.27;95.71;100544.41;4895688;29;20067;-75
2023/04/23 07:50:08;;;;;;;12.18;6.60;;;;;;;12.36;95.60;100544.09;4904532;29;20115;-76
2023/04/23 07:52:34;;;;;;;15.85;6.35;;;;;;;12.46;93.71;100542.00;4914312;29;20220;-76
2023/04/23 07:55:00;;;;;;;10.68;6.10;;;;;;;12.54;92.66;100539.09;4899372;29;20560;-75
2023/04/23 07:57:26;;;;;;;14.63;5.93;;;;;;;12.62;93.35;100545.84;4897203;29;20028;-76
2023/04/23 07:59:51;;;;;;;10.75;5.72;;;;;;;12.68;92.03;100548.31;4901668;29;20036;-76
2023/04/23 08:02:22;;;;;;;16.45;6.68;;;;;;;12.73;93.23;100539.28;4916135;29;20035;-76
2023/04/23 08:04:48;;;;;;;14.13;5.93;;;;;;;12.70;90.29;100535.81;4898072;29;20041;-75
2023/04/23 08:07:13;;;;;;;10.57;4.88;;;;;;;12.82;91.54;100534.53;4897298;29;20028;-76
2023/04/23 08:09:39;;;;;;;10.70;5.20;;;;;;;12.91;91.32;100528.03;4895574;29;20044;-76
2023/04/23 08:12:04;;;;;;;12.27;5.22;;;;;;;13.02;91.18;100535.59;4911446;29;20370;-75
2023/04/23 08:14:30;;;;;;;11.30;4.47;;;;;;;13.10;89.27;100530.84;4908370;29;20071;-76
2023/04/23 08:16:55;;;;;;;13.73;5.07;;;;;;;13.18;88.79;100535.88;4864771;29;20037;-75
2023/04/23 08:19:21;;;;;;;9.75;4.63;;;;;;;13.27;89.73;100533.78;4896905;29;20040;-76
2023/04/23 08:21:47;;;;;;;13.40;4.45;;;;;;;13.34;87.56;100532.63;4895611;29;20036;-76
2023/04/23 08:24:13;;;;;;;12.27;4.13;;;;;;;13.41;86.86;100527.06;4895880;29;20028;-76
2023/04/23 08:26:38;;;;;;;16.05;5.32;;;;;;;13.48;87.90;100532.09;4911282;29;20426;-76
2023/04/23 08:29:04;;;;;;;14.95;4.60;;;;;;;13.58;85.63;100519.31;4895622;29;20076;-76
2023/04/23 08:31:30;;;;;;;11.02;3.90;;;;;;;13.64;84.83;100519.03;4896671;29;20405;-76
2023/04/23 08:33:56;;;;;;;10.82;3.75;;;;;;;13.70;83.48;100509.97;4896867;29;20052;-76
2023/04/23 08:36:21;;;;;;;16.98;4.60;;;;;;;13.82;85.70;100513.91;4896440;29;20043;-76
2023/04/23 08:38:47;;;;;;;13.40;3.50;;;;;;;13.94;83.15;100508.94;4896652;29;20089;-76
2023/04/23 08:41:14;;;;;;;11.40;4.00;;;;;;;14.06;85.04;100518.22;4909730;29;20040;-76
2023/04/23 08:44:02;;;;;;;8.85;3.65;;;;;;;14.17;83.24;100521.34;4895288;29;20071;-76
2023/04/23 08:46:31;;;;;;;13.82;4.00;;;;;;;14.27;82.06;100518.25;4897266;29;20036;-76
2023/04/23 08:48:59;;;;;;;11.82;3.90;;;;;;;14.35;80.44;100511.69;4899313;29;20502;-76
2023/04/23 08:51:29;;;;;;;13.60;3.67;;;;;;;14.39;80.25;100507.97;4902222;29;20059;-76
2023/04/23 08:53:58;;;;;;;15.77;4.05;;;;;;;14.46;81.02;100507.69;4888873;29;20059;-76
2023/04/23 08:56:24;;;;;;;15.07;3.58;;;;;;;14.56;80.33;100512.59;4887478;29;20040;-76
2023/04/23 08:58:49;;;;;;;11.18;3.65;;;;;;;14.61;76.88;100513.28;4909167;29;20056;-76
2023/04/23 09:01:16;;;;;;;12.60;3.30;;;;;;;14.56;78.33;100509.94;4867897;29;20033;-76
2023/04/23 09:03:42;;;;;;;12.07;3.45;;;;;;;14.59;78.13;100511.59;4900236;29;20044;-76
2023/04/23 09:06:08;;;;;;;12.90;3.28;;;;;;;14.62;76.89;100507.00;4900735;29;20432;-76
2023/04/23 09:08:34;;;;;;;8.60;3.55;;;;;;;14.70;77.42;100511.97;4895883;29;20131;-76
2023/04/23 09:11:01;;;;;;;9.77;3.05;;;;;;;14.73;76.18;100510.97;4883103;29;20076;-76
2023/04/23 09:13:29;;;;;;;10.38;3.00;;;;;;;14.74;73.65;100502.06;4900672;29;20063;-76
2023/04/23 09:15:54;;;;;;;9.13;2.60;;;;;;;14.82;74.34;100515.91;4891326;29;20076;-76
2023/04/23 09:18:20;;;;;;;9.40;3.08;;;;;;;14.88;72.75;100496.09;4883213;29;20064;-76
2023/04/23 09:20:46;;;;;;;8.52;2.95;;;;;;;15.02;76.17;100507.00;4899733;29;20031;-76
2023/04/23 09:23:14;;;;;;;11.43;2.80;;;;;;;15.23;77.07;100506.03;4910523;29;20052;-76
2023/04/23 09:25:40;;;;;;;8.75;2.50;;;;;;;15.37;72.33;100494.69;4905404;29;20092;-76
2023/04/23 09:28:13;;;;;;;8.00;2.55;;;;;;;15.49;71.19;100499.44;4901729;29;20054;-76
2023/04/23 09:30:42;;;;;;;8.73;2.80;;;;;;;15.57;69.04;100495.56;4871676;29;20100;-76
2023/04/23 09:33:15;;;;;;;14.88;2.58;;;;;;;15.61;67.92;100495.34;4899693;29;20123;-76
2023/04/23 09:35:42;;;;;;;10.13;2.88;;;;;;;15.70;66.96;100494.03;4899481;29;20136;-76
2023/04/23 09:38:09;;;;;;;5.05;1.77;;;;;;;15.78;64.93;100491.88;4882737;29;20043;-76
2023/04/23 09:40:36;;;;;;;9.95;2.40;;;;;;;15.83;65.55;100486.31;4899685;29;20056;-76
2023/04/23 09:43:03;;;;;;;10.68;2.53;;;;;;;15.88;65.66;100477.13;4912141;29;20032;-76
2023/04/23 09:45:29;;;;;;;9.23;2.30;;;;;;;15.94;64.89;100483.97;4899190;29;20040;-76
2023/04/23 09:47:57;;;;;;;11.57;2.50;;;;;;;16.02;64.46;100487.16;4898023;29;20115;-76
2023/04/23 09:50:37;;;;;;;8.32;1.92;;;;;;;16.19;65.77;100478.25;4899124;29;20067;-76
2023/04/23 09:53:07;;;;;;;11.05;2.47;;;;;;;16.39;66.13;100479.91;4881567;29;20037;-76
2023/04/23 09:55:37;;;;;;;7.13;1.83;;;;;;;16.46;59.34;100475.09;4882275;29;20111;-76
2023/04/23 09:58:05;;;;;;;8.03;2.37;;;;;;;16.41;58.75;100485.19;4902998;29;20064;-74
2023/04/23 10:00:36;;;;;;;9.10;2.28;;;;;;;16.24;57.15;100470.00;4911524;29;20448;-74
2023/04/23 10:03:03;;;;;;;10.40;2.40;;;;;;;16.12;59.03;100471.50;4884734;29;20040;-75
2023/04/23 10:05:30;;;;;;;8.15;2.08;;;;;;;15.99;60.17;100481.94;4899139;29;20039;-75
2023/04/23 10:07:58;;;;;;;11.77;2.05;;;;;;;15.81;58.51;100466.84;4900214;29;20072;-76
2023/04/23 10:10:24;;;;;;;6.68;1.92;;;;;;;15.69;61.55;100458.47;4910428;29;20024;-75
2023/04/23 10:12:53;;;;;;;5.47;1.75;;;;;;;15.82;61.60;100463.22;4898655;29;20048;-75
2023/04/23 10:15:18;;;;;;;12.63;2.40;;;;;;;15.84;59.74;100467.53;4898993;29;20136;-75
2023/04/23 10:17:45;;;;;;;10.30;1.95;;;;;;;15.94;59.46;100467.94;4906508;29;20127;-76
2023/04/23 10:20:12;;;;;;;10.45;2.35;;;;;;;15.97;60.37;100459.78;4899991;29;20051;-75
2023/04/23 10:22:39;;;;;;;8.90;2.25;;;;;;;16.11;60.10;100459.09;4904967;29;20488;-75
2023/04/23 10:25:10;;;;;;;9.23;1.88;;;;;;;16.23;60.45;100457.59;4905380;29;20045;-75
2023/04/23 10:27:40;;;;;;;8.55;2.00;;;;;;;16.32;59.70;100457.13;4898669;29;20437;-76
2023/04/23 10:30:08;;;;;;;9.45;2.15;;;;;;;16.51;60.56;100457.03;4898554;29;20033;-75
2023/04/23 10:32:34;;;;;;;6.05;2.00;;;;;;;16.58;59.43;100458.44;4911799;29;20120;-75
2023/04/23 10:35:00;;;;;;;9.82;2.65;;;;;;;16.61;59.91;100449.38;4897284;29;20655;-75
2023/04/23 10:37:26;;;;;;;6.13;1.85;;;;;;;16.72;60.94;100436.31;4881638;29;20499;-76
2023/04/23 10:39:55;;;;;;;8.10;1.88;;;;;;;16.72;58.64;100450.53;4898254;29;20116;-75
2023/04/23 10:42:25;;;;;;;7.20;1.70;;;;;;;16.75;59.04;100442.34;4882045;29;20037;-75
2023/04/23 10:44:56;;;;;;;8.73;2.00;;;;;;;16.72;60.23;100445.19;4900096;29;20040;-75
2023/04/23 10:47:22;;;;;;;6.97;2.08;;;;;;;16.73;59.50;100438.03;4902121;29;20040;-76
2023/04/23 10:49:47;;;;;;;5.82;2.10;;;;;;;16.64;58.92;100433.16;4891266;29;20133;-75
2023/04/23 10:52:16;;;;;;;11.30;2.15;;;;;;;16.53;58.58;100434.63;4890855;29;20433;-75
2023/04/23 10:54:42;;;;;;;8.38;2.00;;;;;;;16.48;61.06;100435.81;4896621;29;20059;-75
2023/04/23 10:57:09;;;;;;;7.03;2.00;;;;;;;16.47;59.37;100429.59;4898299;29;20067;-75
2023/04/23 10:59:39;;;;;;;7.65;2.38;;;;;;;16.44;60.76;100431.56;4898270;29;20056;-76
2023/04/23 11:02:07;;;;;;;7.80;1.98;;;;;;;16.47;60.50;100423.41;4898153;29;20071;-75
2023/04/23 11:04:41;;;;;;;7.55;1.85;;;;;;;16.37;59.86;100422.13;4911549;29;20035;-76
2023/04/23 11:07:08;;;;;;;5.82;1.90;;;;;;;16.39;61.66;100413.09;4898290;29;20392;-76
2023/04/23 11:09:33;;;;;;;6.57;2.20;;;;;;;16.50;60.10;100412.53;4897916;29;20033;-75